Time;durP1;ratioP1;P1;durP2;ratioP2;P2;SDS_P1;SDS_P2;PMS_P1;PMS_P2;Temp;Humidity;BMP_temperature;BMP_pressure;BME280_temperature;BME280_humidity;BME280_pressure;Samples;Min_cycle;Max_cycle;Signal;HPM_P1;HPM_P2
2021/04/28 00:01:09;;;;;;;0.60;0.60;;;5.00;86.40;;;;;;5068619;28;20555;-77
2021/04/28 00:03:36;;;;;;;0.60;0.60;;;5.00;87.00;;;;;;5068054;28;20203;-77
2021/04/28 00:06:02;;;;;;;0.70;0.70;;;5.00;87.60;;;;;;5068298;28;20740;-77
2021/04/28 00:08:28;;;;;;;0.60;0.60;;;5.00;88.20;;;;;;5068452;28;20227;-77
2021/04/28 00:10:54;;;;;;;0.60;0.60;;;4.90;88.60;;;;;;5070475;28;20242;-77
2021/04/28 00:13:21;;;;;;;0.60;0.60;;;4.90;89.40;;;;;;5071908;28;20199;-77
2021/04/28 00:15:49;;;;;;;0.60;0.60;;;4.90;90.00;;;;;;5072078;28;20204;-77
2021/04/28 00:18:16;;;;;;;0.60;0.60;;;4.90;90.10;;;;;;5072184;28;20577;-77
2021/04/28 00:20:43;;;;;;;0.60;0.60;;;4.90;90.30;;;;;;5071583;28;20776;-77
2021/04/28 00:23:10;;;;;;;0.60;0.60;;;4.80;90.50;;;;;;5072205;28;20573;-77
2021/04/28 00:25:37;;;;;;;0.60;0.60;;;4.80;90.70;;;;;;5071789;28;20596;-77
2021/04/28 00:28:04;;;;;;;0.60;0.60;;;4.80;91.00;;;;;;5071438;28;20617;-77
2021/04/28 00:30:32;;;;;;;0.60;0.60;;;4.80;91.20;;;;;;5071978;28;20207;-77
2021/04/28 00:32:59;;;;;;;0.60;0.60;;;4.70;91.40;;;;;;5071742;28;20253;-77
2021/04/28 00:35:25;;;;;;;0.60;0.60;;;4.70;91.70;;;;;;5071418;28;20199;-77
2021/04/28 00:37:52;;;;;;;0.60;0.60;;;4.70;91.80;;;;;;5071908;28;20206;-77
2021/04/28 00:40:22;;;;;;;0.60;0.60;;;4.70;92.00;;;;;;5071763;28;20207;-77
2021/04/28 00:42:48;;;;;;;0.60;0.60;;;4.70;92.20;;;;;;5071483;28;20211;-77
2021/04/28 00:45:17;;;;;;;0.60;0.60;;;4.70;92.40;;;;;;5071869;28;20357;-76
2021/04/28 00:47:44;;;;;;;0.60;0.60;;;4.60;92.50;;;;;;5071389;28;20697;-77
2021/04/28 00:50:13;;;;;;;0.60;0.60;;;4.60;92.70;;;;;;5071611;28;20203;-76
2021/04/28 00:52:40;;;;;;;0.60;0.60;;;4.60;93.00;;;;;;5071357;28;20200;-77
2021/04/28 00:55:08;;;;;;;0.60;0.60;;;4.50;93.20;;;;;;5071408;28;20207;-76
2021/04/28 00:57:34;;;;;;;0.60;0.60;;;4.60;93.40;;;;;;5071388;28;20204;-76
2021/04/28 01:00:01;;;;;;;0.60;0.60;;;4.50;93.50;;;;;;5071129;28;20203;-77
2021/04/28 01:02:27;;;;;;;0.60;0.60;;;4.50;93.60;;;;;;5071250;28;20729;-76
2021/04/28 01:04:55;;;;;;;0.60;0.60;;;4.50;93.90;;;;;;5070683;28;20239;-77
2021/04/28 01:07:21;;;;;;;0.60;0.60;;;4.60;94.00;;;;;;5071156;28;20224;-77
2021/04/28 01:09:48;;;;;;;0.60;0.60;;;4.50;94.10;;;;;;5071022;28;20226;-77
2021/04/28 01:12:16;;;;;;;0.60;0.60;;;4.50;94.20;;;;;;5070713;28;20658;-77
2021/04/28 01:14:43;;;;;;;0.60;0.60;;;4.50;94.30;;;;;;5070952;28;20195;-76
2021/04/28 01:17:09;;;;;;;0.60;0.60;;;4.50;94.60;;;;;;5071066;28;20203;-77
2021/04/28 01:19:38;;;;;;;0.60;0.60;;;4.50;94.70;;;;;;5070934;28;20215;-77
2021/04/28 01:22:08;;;;;;;0.60;0.60;;;4.40;94.80;;;;;;5070008;28;20203;-77
2021/04/28 01:24:35;;;;;;;0.60;0.60;;;4.40;95.10;;;;;;5070995;28;20208;-77
2021/04/28 01:27:08;;;;;;;0.60;0.60;;;4.30;95.40;;;;;;5070359;28;20234;-77
2021/04/28 01:29:35;;;;;;;0.60;0.60;;;4.30;95.60;;;;;;5070898;28;20277;-77
2021/04/28 01:32:02;;;;;;;0.60;0.60;;;4.30;95.70;;;;;;5070527;28;20206;-77
2021/04/28 01:34:29;;;;;;;0.60;0.60;;;4.30;95.80;;;;;;5070751;28;20199;-77
2021/04/28 01:36:57;;;;;;;0.60;0.60;;;4.30;95.90;;;;;;5070509;28;20261;-77
2021/04/28 01:39:26;;;;;;;0.60;0.60;;;4.30;96.20;;;;;;5070337;28;20566;-77
2021/04/28 01:41:53;;;;;;;0.60;0.60;;;4.30;96.30;;;;;;5070405;28;20211;-77
2021/04/28 01:44:22;;;;;;;0.60;0.60;;;4.30;96.40;;;;;;5070362;28;20582;-77
2021/04/28 01:46:51;;;;;;;0.60;0.60;;;4.20;96.70;;;;;;5070419;28;20561;-77
2021/04/28 01:49:19;;;;;;;0.60;0.60;;;4.20;96.80;;;;;;5070293;28;20223;-77
2021/04/28 01:51:45;;;;;;;0.60;0.60;;;4.20;97.10;;;;;;5069796;28;20203;-77
2021/04/28 01:54:15;;;;;;;0.60;0.60;;;4.20;97.20;;;;;;5070197;28;20242;-77
2021/04/28 01:56:44;;;;;;;0.60;0.60;;;4.10;97.40;;;;;;5070066;28;20199;-77
2021/04/28 01:59:14;;;;;;;0.60;0.60;;;4.10;97.80;;;;;;5069926;28;20281;-77
2021/04/28 02:01:43;;;;;;;0.60;0.60;;;4.10;98.10;;;;;;5070198;28;20233;-77
2021/04/28 02:04:09;;;;;;;0.60;0.60;;;4.00;98.20;;;;;;5069877;28;20520;-77
2021/04/28 02:06:38;;;;;;;0.60;0.60;;;4.00;98.30;;;;;;5070043;28;20261;-77
2021/04/28 02:09:05;;;;;;;0.60;0.60;;;4.00;98.40;;;;;;5069756;28;20231;-76
2021/04/28 02:11:31;;;;;;;0.60;0.60;;;4.00;98.70;;;;;;5069846;28;20200;-76
2021/04/28 02:13:58;;;;;;;0.60;0.60;;;3.90;98.80;;;;;;5069968;28;20657;-76
2021/04/28 02:16:27;;;;;;;0.60;0.60;;;4.00;99.10;;;;;;5069883;28;20207;-76
2021/04/28 02:18:54;;;;;;;0.60;0.60;;;4.00;99.30;;;;;;5069295;28;20735;-76
2021/04/28 02:21:20;;;;;;;0.60;0.60;;;3.90;99.40;;;;;;5069736;28;20203;-76
2021/04/28 02:23:47;;;;;;;0.60;0.60;;;3.90;99.60;;;;;;5069484;28;20239;-76
2021/04/28 02:26:13;;;;;;;0.60;0.60;;;3.90;99.80;;;;;;5069605;28;20644;-76
2021/04/28 02:28:39;;;;;;;0.50;0.50;;;3.80;99.90;;;;;;5069144;28;20752;-76
2021/04/28 02:31:06;;;;;;;0.60;0.60;;;3.80;99.90;;;;;;5069454;28;20203;-76
2021/04/28 02:33:34;;;;;;;0.60;0.60;;;3.70;99.90;;;;;;5069656;28;20199;-76
2021/04/28 02:36:00;;;;;;;0.60;0.60;;;3.70;99.90;;;;;;5069368;28;20493;-76
2021/04/28 02:38:34;;;;;;;0.70;0.70;;;3.60;99.90;;;;;;5069398;28;20196;-76
2021/04/28 02:41:02;;;;;;;0.60;0.60;;;3.60;99.90;;;;;;5069114;28;20203;-77
2021/04/28 02:43:30;;;;;;;0.60;0.60;;;3.60;99.90;;;;;;5069501;28;20286;-77
2021/04/28 02:45:59;;;;;;;0.60;0.60;;;3.60;99.90;;;;;;5068874;28;20217;-77
2021/04/28 02:48:26;;;;;;;0.60;0.60;;;3.60;99.90;;;;;;5069337;28;20234;-76
2021/04/28 02:50:54;;;;;;;0.60;0.60;;;3.60;99.90;;;;;;5069153;28;20731;-76
2021/04/28 02:53:23;;;;;;;0.60;0.60;;;3.60;99.90;;;;;;5069024;28;20204;-76
2021/04/28 02:55:53;;;;;;;0.60;0.60;;;3.50;99.90;;;;;;5069191;28;20210;-76
2021/04/28 02:58:19;;;;;;;0.70;0.70;;;3.50;99.90;;;;;;5069008;28;20203;-76
2021/04/28 03:00:46;;;;;;;0.60;0.60;;;3.60;99.90;;;;;;5069149;28;20200;-76
2021/04/28 03:03:15;;;;;;;0.60;0.60;;;3.50;99.90;;;;;;5069122;28;20678;-76
2021/04/28 03:05:41;;;;;;;0.60;0.60;;;3.50;99.90;;;;;;5068842;28;20462;-77
2021/04/28 03:08:08;;;;;;;0.60;0.60;;;3.50;99.90;;;;;;5068876;28;20227;-76
2021/04/28 03:10:35;;;;;;;0.70;0.70;;;3.50;99.90;;;;;;5068891;28;20666;-76
2021/04/28 03:13:02;;;;;;;0.60;0.60;;;3.50;99.90;;;;;;5068844;28;20207;-76
2021/04/28 03:15:28;;;;;;;0.63;0.63;;;3.40;99.90;;;;;;5068782;28;20207;-77
2021/04/28 03:17:54;;;;;;;0.60;0.60;;;3.40;99.90;;;;;;5068847;28;20202;-77
2021/04/28 03:20:22;;;;;;;0.55;0.55;;;3.40;99.90;;;;;;5068934;28;20222;-77
2021/04/28 03:22:48;;;;;;;0.60;0.60;;;3.40;99.90;;;;;;5068632;28;20204;-77
2021/04/28 03:25:16;;;;;;;0.60;0.60;;;3.30;99.90;;;;;;5068860;28;20714;-76
2021/04/28 03:27:42;;;;;;;0.70;0.70;;;3.40;99.90;;;;;;5068859;28;20253;-77
2021/04/28 03:30:09;;;;;;;0.60;0.60;;;3.40;99.90;;;;;;5068903;28;20608;-77
2021/04/28 03:32:36;;;;;;;0.60;0.60;;;3.40;99.90;;;;;;5068664;28;20203;-80
2021/04/28 03:35:02;;;;;;;0.60;0.60;;;3.40;99.90;;;;;;5068716;28;20199;-78
2021/04/28 03:37:29;;;;;;;0.60;0.60;;;3.30;99.90;;;;;;5063497;28;20665;-78
2021/04/28 03:39:55;;;;;;;0.63;0.63;;;3.40;99.90;;;;;;5066931;28;20207;-78
2021/04/28 03:42:24;;;;;;;0.60;0.60;;;3.40;99.90;;;;;;5063859;28;20203;-78
2021/04/28 03:44:51;;;;;;;0.60;0.60;;;3.40;99.90;;;;;;5066278;28;20661;-78
2021/04/28 03:47:19;;;;;;;0.60;0.60;;;3.40;99.90;;;;;;5067784;28;20265;-78
2021/04/28 03:49:45;;;;;;;0.60;0.60;;;3.30;99.90;;;;;;5067549;28;20227;-78
2021/04/28 03:52:11;;;;;;;0.60;0.60;;;3.30;99.90;;;;;;5067699;28;20208;-79
2021/04/28 03:54:38;;;;;;;0.60;0.60;;;3.30;99.90;;;;;;5069419;28;20211;-78
2021/04/28 03:57:07;;;;;;;0.60;0.60;;;3.30;99.90;;;;;;5069252;28;20678;-78
2021/04/28 03:59:35;;;;;;;0.60;0.60;;;3.20;99.90;;;;;;5067564;28;20209;-78
2021/04/28 04:02:01;;;;;;;0.60;0.60;;;3.20;99.90;;;;;;5069194;28;20256;-78
2021/04/28 04:04:27;;;;;;;0.70;0.70;;;3.20;99.90;;;;;;5063763;28;20231;-78
2021/04/28 04:06:53;;;;;;;0.60;0.60;;;3.20;99.90;;;;;;5069128;28;20244;-78
2021/04/28 04:09:19;;;;;;;0.60;0.60;;;3.20;99.90;;;;;;5067119;28;20235;-78
2021/04/28 04:11:46;;;;;;;0.60;0.60;;;3.20;99.90;;;;;;5070824;28;20207;-78
2021/04/28 04:14:12;;;;;;;0.60;0.60;;;3.20;99.90;;;;;;5066953;28;20208;-78
2021/04/28 04:16:39;;;;;;;0.63;0.63;;;3.20;99.90;;;;;;5067264;28;20233;-78
2021/04/28 04:19:05;;;;;;;0.60;0.60;;;3.20;99.90;;;;;;5063488;28;20680;-78
2021/04/28 04:21:31;;;;;;;0.60;0.60;;;3.30;99.90;;;;;;5066723;28;20229;-78
2021/04/28 04:23:58;;;;;;;0.60;0.60;;;3.30;99.90;;;;;;5066814;28;20242;-79
2021/04/28 04:26:25;;;;;;;0.60;0.60;;;3.20;99.90;;;;;;5066647;28;20224;-78
2021/04/28 04:28:51;;;;;;;0.60;0.60;;;3.30;99.90;;;;;;5066550;28;20277;-78
2021/04/28 04:31:17;;;;;;;0.60;0.60;;;3.20;99.90;;;;;;5068654;28;20195;-79
2021/04/28 04:33:44;;;;;;;0.60;0.60;;;3.30;99.90;;;;;;5067016;28;20201;-78
2021/04/28 04:36:10;;;;;;;0.60;0.60;;;3.20;99.90;;;;;;5066818;28;20208;-79
2021/04/28 04:38:36;;;;;;;0.60;0.60;;;3.30;99.90;;;;;;5068285;28;20204;-79
2021/04/28 04:41:04;;;;;;;0.60;0.60;;;3.30;99.90;;;;;;5066648;28;20265;-80
2021/04/28 04:43:30;;;;;;;0.60;0.60;;;3.30;99.90;;;;;;5066757;28;20204;-79
2021/04/28 04:45:57;;;;;;;0.60;0.60;;;3.40;99.90;;;;;;5064103;28;20202;-79
2021/04/28 04:48:23;;;;;;;0.60;0.60;;;3.40;99.90;;;;;;5068554;28;20246;-80
2021/04/28 04:50:50;;;;;;;0.60;0.60;;;3.40;99.90;;;;;;5069751;28;20200;-79
2021/04/28 04:53:16;;;;;;;0.60;0.60;;;3.60;99.90;;;;;;5066068;28;20227;-80
2021/04/28 04:55:42;;;;;;;0.60;0.60;;;3.60;99.90;;;;;;5064816;28;20218;-79
2021/04/28 04:58:08;;;;;;;0.60;0.60;;;3.50;99.90;;;;;;5065399;28;20210;-79
2021/04/28 05:00:34;;;;;;;0.60;0.60;;;3.50;99.90;;;;;;5068158;28;20203;-79
2021/04/28 05:03:00;;;;;;;0.60;0.60;;;3.60;99.90;;;;;;5067745;28;20288;-80
2021/04/28 05:05:26;;;;;;;0.60;0.60;;;4.00;99.90;;;;;;5066036;28;20312;-79
2021/04/28 05:07:53;;;;;;;0.70;0.70;;;4.70;99.90;;;;;;5066124;28;20807;-80
2021/04/28 05:10:21;;;;;;;0.60;0.60;;;4.40;99.90;;;;;;5067662;28;20208;-78
2021/04/28 05:12:48;;;;;;;0.60;0.60;;;5.00;99.90;;;;;;5062614;28;20823;-78
2021/04/28 05:15:16;;;;;;;0.60;0.60;;;5.50;99.90;;;;;;5068125;28;20273;-80
2021/04/28 05:17:42;;;;;;;0.60;0.60;;;5.10;99.90;;;;;;5069242;28;20332;-79
2021/04/28 05:20:10;;;;;;;0.60;0.60;;;4.70;99.90;;;;;;5065662;28;20211;-79
2021/04/28 05:22:37;;;;;;;0.60;0.60;;;4.70;99.90;;;;;;5059797;28;20196;-79
2021/04/28 05:25:05;;;;;;;0.60;0.60;;;4.70;99.90;;;;;;5065872;28;20694;-79
2021/04/28 05:27:31;;;;;;;0.60;0.60;;;4.40;99.90;;;;;;5065956;28;20236;-79
2021/04/28 05:30:00;;;;;;;0.60;0.60;;;4.70;99.90;;;;;;5067460;28;20204;-79
2021/04/28 05:32:27;;;;;;;0.60;0.60;;;4.40;99.90;;;;;;5065273;28;20226;-79
2021/04/28 05:34:53;;;;;;;0.60;0.60;;;4.50;99.90;;;;;;5066023;28;20211;-80
2021/04/28 05:37:20;;;;;;;0.60;0.60;;;4.70;99.90;;;;;;5065554;28;20245;-81
2021/04/28 05:39:47;;;;;;;0.60;0.60;;;5.10;99.90;;;;;;5067268;28;20231;-81
2021/04/28 05:42:14;;;;;;;0.50;0.50;;;5.40;99.90;;;;;;5042443;28;20261;-79
2021/04/28 05:44:40;;;;;;;0.60;0.60;;;5.40;99.90;;;;;;5053133;28;20204;-80
2021/04/28 05:47:15;;;;;;;0.60;0.60;;;5.70;99.90;;;;;;5057808;28;20207;-82
2021/04/28 05:49:47;;;;;;;0.60;0.60;;;5.60;99.90;;;;;;5062432;28;20381;-79
2021/04/28 05:52:13;;;;;;;0.60;0.60;;;5.70;99.90;;;;;;5064351;28;20257;-79
2021/04/28 05:54:39;;;;;;;0.60;0.60;;;5.30;99.90;;;;;;5064891;28;20195;-79
2021/04/28 05:57:05;;;;;;;0.60;0.60;;;5.70;99.90;;;;;;5063181;28;20199;-79
2021/04/28 05:59:32;;;;;;;0.60;0.60;;;5.60;99.90;;;;;;5064392;28;20255;-79
2021/04/28 06:02:02;;;;;;;0.60;0.60;;;5.60;99.90;;;;;;5062617;28;20603;-79
2021/04/28 06:04:28;;;;;;;0.60;0.60;;;5.50;99.90;;;;;;5063961;28;20300;-80
2021/04/28 06:06:54;;;;;;;0.60;0.60;;;5.60;99.90;;;;;;5059354;28;20207;-79
2021/04/28 06:09:20;;;;;;;0.60;0.60;;;5.60;99.90;;;;;;5058135;28;20637;-80
2021/04/28 06:11:46;;;;;;;0.60;0.60;;;5.60;99.90;;;;;;5059685;28;20202;-79
2021/04/28 06:14:13;;;;;;;0.60;0.60;;;5.60;99.90;;;;;;5055231;28;20219;-83
2021/04/28 06:16:43;;;;;;;0.60;0.60;;;5.80;99.90;;;;;;5064350;28;20246;-83
2021/04/28 06:19:10;;;;;;;0.60;0.60;;;5.90;99.90;;;;;;5059485;28;20212;-82
2021/04/28 06:21:37;;;;;;;0.60;0.60;;;6.00;99.90;;;;;;5055696;28;20297;-80
2021/04/28 06:24:04;;;;;;;0.60;0.60;;;6.00;99.90;;;;;;5063553;28;20674;-82
2021/04/28 06:26:31;;;;;;;0.60;0.60;;;6.00;99.90;;;;;;5063541;28;20228;-80
2021/04/28 06:28:57;;;;;;;0.60;0.60;;;6.30;99.90;;;;;;5060523;28;20232;-84
2021/04/28 06:31:23;;;;;;;0.60;0.60;;;6.50;99.90;;;;;;5065374;28;20214;-78
2021/04/28 06:33:51;;;;;;;0.60;0.60;;;6.50;99.90;;;;;;5063468;28;20524;-78
2021/04/28 06:36:17;;;;;;;0.60;0.60;;;6.40;99.90;;;;;;5063060;28;20212;-78
2021/04/28 06:38:43;;;;;;;0.60;0.60;;;6.40;99.90;;;;;;5067602;28;20722;-78
2021/04/28 06:41:10;;;;;;;0.60;0.60;;;6.40;99.90;;;;;;5065095;28;20204;-78
2021/04/28 06:43:36;;;;;;;0.60;0.60;;;6.50;99.90;;;;;;5063172;28;20208;-78
2021/04/28 06:46:02;;;;;;;0.60;0.60;;;6.60;99.90;;;;;;5065264;28;20199;-78
2021/04/28 06:48:28;;;;;;;0.60;0.60;;;6.70;99.90;;;;;;5058212;28;20223;-78
2021/04/28 06:50:55;;;;;;;0.60;0.60;;;6.90;99.90;;;;;;5067438;28;20207;-78
2021/04/28 06:53:22;;;;;;;0.60;0.60;;;7.00;99.90;;;;;;5064979;28;20221;-78
2021/04/28 06:55:48;;;;;;;0.60;0.60;;;7.30;99.60;;;;;;5063272;28;20215;-78
2021/04/28 06:58:15;;;;;;;0.60;0.60;;;7.40;99.60;;;;;;5068018;28;20201;-78
2021/04/28 07:00:41;;;;;;;0.60;0.60;;;7.50;98.00;;;;;;5069172;28;20581;-80
2021/04/28 07:03:08;;;;;;;0.60;0.60;;;7.60;97.80;;;;;;5068659;28;20203;-79
2021/04/28 07:05:34;;;;;;;0.60;0.60;;;7.80;97.50;;;;;;5069065;28;20235;-79
2021/04/28 07:08:01;;;;;;;0.60;0.60;;;7.80;97.00;;;;;;5067845;28;20228;-80
2021/04/28 07:10:27;;;;;;;0.60;0.60;;;7.90;97.80;;;;;;5068316;28;20207;-80
2021/04/28 07:12:54;;;;;;;0.60;0.60;;;8.10;97.60;;;;;;5067798;28;20199;-80
2021/04/28 07:15:21;;;;;;;0.60;0.60;;;9.50;97.80;;;;;;5068251;28;20210;-79
2021/04/28 07:17:48;;;;;;;0.60;0.60;;;8.30;95.50;;;;;;5068367;28;20208;-80
2021/04/28 07:20:15;;;;;;;0.60;0.60;;;8.40;95.80;;;;;;5068082;28;20196;-80
2021/04/28 07:22:42;;;;;;;0.60;0.60;;;8.50;96.80;;;;;;5066356;28;20512;-78
2021/04/28 07:25:11;;;;;;;0.60;0.60;;;8.50;95.80;;;;;;5068808;28;20268;-79
2021/04/28 07:27:37;;;;;;;0.60;0.60;;;8.60;96.20;;;;;;5067964;28;20228;-79
2021/04/28 07:30:04;;;;;;;0.60;0.60;;;8.60;95.50;;;;;;5067249;28;20306;-79
2021/04/28 07:32:30;;;;;;;0.60;0.60;;;8.80;95.90;;;;;;5068167;28;20269;-79
2021/04/28 07:34:57;;;;;;;0.60;0.60;;;8.90;95.80;;;;;;5068856;28;20313;-79
2021/04/28 07:37:23;;;;;;;0.60;0.60;;;8.90;95.10;;;;;;5068494;28;20211;-79
2021/04/28 07:39:49;;;;;;;0.60;0.60;;;9.00;95.40;;;;;;5068678;28;20207;-79
2021/04/28 07:42:18;;;;;;;0.60;0.60;;;8.90;94.40;;;;;;5068053;28;20572;-79
2021/04/28 07:44:44;;;;;;;0.52;0.52;;;9.10;95.00;;;;;;5068788;28;20208;-80
2021/04/28 07:47:10;;;;;;;0.60;0.60;;;9.10;93.40;;;;;;5068317;28;20212;-79
2021/04/28 07:49:37;;;;;;;0.60;0.60;;;9.10;94.40;;;;;;5068750;28;20770;-81
2021/04/28 07:52:03;;;;;;;0.60;0.60;;;9.30;93.80;;;;;;5068398;28;20208;-80
2021/04/28 07:54:29;;;;;;;0.60;0.60;;;9.30;93.70;;;;;;5067971;28;20696;-80
2021/04/28 07:56:55;;;;;;;0.60;0.60;;;9.40;93.90;;;;;;5067667;28;20646;-80
2021/04/28 07:59:22;;;;;;;0.60;0.60;;;9.50;93.70;;;;;;5068602;28;20228;-80
2021/04/28 08:01:49;;;;;;;0.60;0.60;;;9.50;93.50;;;;;;5068356;28;20530;-80
2021/04/28 08:04:15;;;;;;;0.60;0.60;;;9.40;94.80;;;;;;5068523;28;20702;-80
2021/04/28 08:06:41;;;;;;;0.60;0.60;;;9.60;94.50;;;;;;5068227;28;20269;-80
2021/04/28 08:09:08;;;;;;;0.60;0.60;;;9.70;93.60;;;;;;5068306;28;20272;-79
2021/04/28 08:11:34;;;;;;;0.60;0.60;;;9.70;94.20;;;;;;5068032;28;20215;-79
2021/04/28 08:14:00;;;;;;;0.55;0.55;;;9.60;94.10;;;;;;5067953;28;20204;-79
2021/04/28 08:16:27;;;;;;;0.60;0.60;;;9.80;94.50;;;;;;5068046;28;20578;-79
2021/04/28 08:18:53;;;;;;;0.60;0.60;;;9.90;93.40;;;;;;5068548;28;20211;-79
2021/04/28 08:21:19;;;;;;;0.60;0.60;;;10.00;93.40;;;;;;5068001;28;20499;-79
2021/04/28 08:23:45;;;;;;;0.60;0.60;;;10.10;93.70;;;;;;5068349;28;20670;-79
2021/04/28 08:26:13;;;;;;;0.60;0.60;;;10.30;93.80;;;;;;5068306;28;20235;-83
2021/04/28 08:28:41;;;;;;;0.60;0.60;;;10.30;93.10;;;;;;5067325;28;20735;-79
2021/04/28 08:31:08;;;;;;;0.60;0.60;;;10.30;93.10;;;;;;5069603;28;20207;-79
2021/04/28 08:33:35;;;;;;;0.60;0.60;;;10.30;92.50;;;;;;5071464;28;20203;-82
2021/04/28 08:36:01;;;;;;;0.60;0.60;;;10.50;92.60;;;;;;5071826;28;20674;-82
2021/04/28 08:38:27;;;;;;;0.60;0.60;;;10.80;94.00;;;;;;5071057;28;20337;-78
2021/04/28 08:40:53;;;;;;;0.60;0.60;;;10.80;93.70;;;;;;5072152;28;20219;-78
2021/04/28 08:43:22;;;;;;;0.60;0.60;;;11.10;92.90;;;;;;5062256;28;20701;-78
2021/04/28 08:45:49;;;;;;;0.60;0.60;;;11.00;91.70;;;;;;5066778;28;20222;-81
2021/04/28 08:48:15;;;;;;;0.60;0.60;;;11.10;92.10;;;;;;5071181;28;20216;-83
2021/04/28 08:50:45;;;;;;;0.60;0.60;;;11.20;92.70;;;;;;5072107;28;20211;-80
2021/04/28 08:53:13;;;;;;;0.60;0.60;;;11.30;91.50;;;;;;5071513;28;20204;-80
2021/04/28 08:55:39;;;;;;;0.60;0.60;;;11.30;92.60;;;;;;5070587;28;20310;-80
2021/04/28 08:58:06;;;;;;;0.60;0.60;;;11.20;91.00;;;;;;5071192;28;20548;-79
2021/04/28 09:00:32;;;;;;;0.60;0.60;;;11.30;91.40;;;;;;5070460;28;20204;-79
2021/04/28 09:03:00;;;;;;;0.60;0.60;;;11.30;90.80;;;;;;5067435;28;20234;-81
2021/04/28 09:05:27;;;;;;;0.60;0.60;;;11.20;90.40;;;;;;5070245;28;20322;-85
2021/04/28 09:07:54;;;;;;;0.60;0.60;;;11.20;90.60;;;;;;5070604;28;20210;-81
2021/04/28 09:10:23;;;;;;;0.60;0.60;;;11.30;91.10;;;;;;5071774;28;20200;-82
2021/04/28 09:12:54;;;;;;;0.60;0.60;;;11.20;89.70;;;;;;5053290;28;20565;-82
2021/04/28 09:15:35;;;;;;;0.60;0.60;;;11.40;90.60;;;;;;5067236;28;20200;-80
2021/04/28 09:18:02;;;;;;;0.60;0.60;;;11.50;90.20;;;;;;5070119;28;20454;-81
2021/04/28 09:20:31;;;;;;;0.60;0.60;;;11.70;90.70;;;;;;5069807;28;20208;-81
2021/04/28 09:23:11;;;;;;;0.60;0.60;;;11.70;89.50;;;;;;5069911;28;20292;-81
2021/04/28 09:25:41;;;;;;;0.60;0.60;;;11.70;89.80;;;;;;5069944;28;20234;-80
2021/04/28 09:28:31;;;;;;;0.60;0.60;;;11.80;90.20;;;;;;5069258;28;20342;-80
2021/04/28 09:31:15;;;;;;;0.60;0.60;;;11.90;87.50;;;;;;5069911;28;20203;-81
2021/04/28 09:33:52;;;;;;;0.60;0.60;;;11.90;88.10;;;;;;5060564;28;20511;-82
2021/04/28 09:36:26;;;;;;;0.60;0.60;;;12.00;87.90;;;;;;5069490;28;20673;-82
2021/04/28 09:38:54;;;;;;;0.60;0.60;;;12.10;88.50;;;;;;5051585;28;20219;-82
2021/04/28 09:41:31;;;;;;;0.60;0.60;;;12.10;87.50;;;;;;5067821;28;20234;-81
2021/04/28 09:43:57;;;;;;;0.60;0.60;;;12.20;88.60;;;;;;5068100;28;20200;-81
2021/04/28 09:46:23;;;;;;;0.60;0.60;;;12.40;88.90;;;;;;5069044;28;20249;-81
2021/04/28 09:48:59;;;;;;;0.60;0.60;;;12.30;86.60;;;;;;5069100;28;20273;-81
2021/04/28 09:51:32;;;;;;;0.60;0.60;;;12.40;87.00;;;;;;5068966;28;20206;-79
2021/04/28 09:54:10;;;;;;;0.60;0.60;;;12.70;90.00;;;;;;5067303;28;20219;-81
2021/04/28 09:56:38;;;;;;;0.60;0.60;;;12.60;85.20;;;;;;5058334;28;20200;-81
2021/04/28 09:59:04;;;;;;;0.60;0.60;;;12.90;88.60;;;;;;5062087;28;20230;-81
2021/04/28 10:01:32;;;;;;;0.60;0.60;;;12.90;84.90;;;;;;5068479;28;20245;-81
2021/04/28 10:03:59;;;;;;;0.60;0.60;;;12.80;85.70;;;;;;5069168;28;20211;-81
2021/04/28 10:06:46;;;;;;;0.60;0.60;;;13.00;87.00;;;;;;5068799;28;20207;-80
2021/04/28 10:09:31;;;;;;;0.60;0.60;;;13.20;88.80;;;;;;5069730;28;20223;-80
2021/04/28 10:11:59;;;;;;;0.60;0.60;;;13.40;90.20;;;;;;5068149;28;20290;-80
2021/04/28 10:14:26;;;;;;;0.60;0.60;;;13.50;90.10;;;;;;5068596;28;20219;-80
2021/04/28 10:16:54;;;;;;;0.60;0.60;;;14.20;87.40;;;;;;5069034;28;20461;-80
2021/04/28 10:19:22;;;;;;;0.60;0.60;;;13.70;84.20;;;;;;5068772;28;20290;-80
2021/04/28 10:21:49;;;;;;;0.60;0.60;;;13.60;82.80;;;;;;5068312;28;20208;-81
2021/04/28 10:24:16;;;;;;;0.60;0.60;;;13.70;87.30;;;;;;5069025;28;20226;-81
2021/04/28 10:26:44;;;;;;;0.60;0.60;;;13.80;86.30;;;;;;5067644;28;20713;-81
2021/04/28 10:29:11;;;;;;;0.60;0.60;;;13.60;80.90;;;;;;5068700;28;20823;-81
2021/04/28 10:31:38;;;;;;;0.60;0.60;;;13.80;82.80;;;;;;5068470;28;20261;-81
2021/04/28 10:34:07;;;;;;;0.60;0.60;;;13.70;81.40;;;;;;5068916;28;20665;-81
2021/04/28 10:36:34;;;;;;;0.60;0.60;;;13.70;86.50;;;;;;5067978;28;20637;-81
2021/04/28 10:39:01;;;;;;;0.60;0.60;;;13.80;82.70;;;;;;5068641;28;20260;-81
2021/04/28 10:41:38;;;;;;;0.60;0.60;;;13.90;81.30;;;;;;5067888;28;20206;-82
2021/04/28 10:44:06;;;;;;;0.60;0.60;;;14.10;84.10;;;;;;5068442;28;20290;-82
2021/04/28 10:46:33;;;;;;;0.60;0.60;;;14.10;81.60;;;;;;5066742;28;20200;-81
2021/04/28 10:49:17;;;;;;;0.60;0.60;;;14.20;80.70;;;;;;5068472;28;20223;-82
2021/04/28 10:51:46;;;;;;;0.60;0.60;;;14.00;80.60;;;;;;5068078;28;20277;-82
2021/04/28 10:54:26;;;;;;;0.60;0.60;;;14.20;80.70;;;;;;5067801;28;20200;-82
2021/04/28 10:57:00;;;;;;;0.60;0.60;;;14.20;86.60;;;;;;5067682;28;20211;-82
2021/04/28 10:59:35;;;;;;;0.60;0.60;;;14.60;82.30;;;;;;5068148;28;20210;-83
2021/04/28 11:02:07;;;;;;;0.60;0.60;;;14.50;79.00;;;;;;5068365;28;20207;-82
2021/04/28 11:04:34;;;;;;;0.57;0.57;;;14.40;81.00;;;;;;5065875;28;20231;-83
2021/04/28 11:07:00;;;;;;;0.60;0.60;;;14.00;77.20;;;;;;5066395;28;20208;-81
2021/04/28 11:09:27;;;;;;;0.60;0.60;;;14.10;78.80;;;;;;5067917;28;20292;-81
2021/04/28 11:11:59;;;;;;;0.60;0.60;;;14.40;81.30;;;;;;5068071;28;20377;-82
2021/04/28 11:14:40;;;;;;;0.60;0.60;;;14.80;80.00;;;;;;5068468;28;20211;-82
2021/04/28 11:17:30;;;;;;;0.60;0.60;;;15.10;81.00;;;;;;5069010;28;20268;-82
2021/04/28 11:20:17;;;;;;;0.60;0.60;;;15.30;79.90;;;;;;5069039;28;20203;-81
2021/04/28 11:22:43;;;;;;;0.60;0.60;;;15.30;80.70;;;;;;5068199;28;20200;-82
2021/04/28 11:25:17;;;;;;;0.60;0.60;;;14.90;78.10;;;;;;5068891;28;20207;-81
2021/04/28 11:27:52;;;;;;;0.60;0.60;;;15.10;80.10;;;;;;5068162;28;20603;-82
2021/04/28 11:30:24;;;;;;;0.60;0.60;;;15.30;79.20;;;;;;5069329;28;20207;-81
2021/04/28 11:33:32;;;;;;;0.60;0.60;;;15.50;80.90;;;;;;5065109;28;20263;-81
2021/04/28 11:36:12;;;;;;;0.60;0.60;;;15.90;81.00;;;;;;5063615;28;20550;-81
2021/04/28 11:38:43;;;;;;;0.60;0.60;;;16.00;77.30;;;;;;5068154;28;20212;-79
2021/04/28 11:41:11;;;;;;;0.57;0.57;;;16.10;81.70;;;;;;5069365;28;20204;-79
2021/04/28 11:43:41;;;;;;;0.60;0.60;;;16.00;80.70;;;;;;5065051;28;20545;-79
2021/04/28 11:46:10;;;;;;;0.60;0.60;;;16.50;78.80;;;;;;5068484;28;20720;-80
2021/04/28 11:48:38;;;;;;;0.60;0.60;;;16.70;82.70;;;;;;5067767;28;20223;-80
2021/04/28 11:51:06;;;;;;;0.60;0.60;;;17.10;79.50;;;;;;5068301;28;20211;-80
2021/04/28 11:53:32;;;;;;;0.60;0.60;;;17.60;86.70;;;;;;5068133;28;20581;-80
2021/04/28 11:55:59;;;;;;;0.60;0.60;;;17.80;83.90;;;;;;5068581;28;20203;-80
2021/04/28 11:58:30;;;;;;;0.60;0.60;;;18.10;81.00;;;;;;5067458;28;20291;-80
2021/04/28 12:01:08;;;;;;;0.60;0.60;;;17.60;76.20;;;;;;5068992;28;20684;-80
2021/04/28 12:03:55;;;;;;;0.60;0.60;;;17.70;80.10;;;;;;5066431;28;20203;-81
2021/04/28 12:06:30;;;;;;;0.60;0.60;;;18.10;85.10;;;;;;5069998;28;20211;-81
2021/04/28 12:09:03;;;;;;;0.60;0.60;;;18.70;84.90;;;;;;5071827;28;20384;-81
2021/04/28 12:11:30;;;;;;;0.60;0.60;;;18.50;82.50;;;;;;5071727;28;20313;-82
2021/04/28 12:13:56;;;;;;;0.60;0.60;;;18.80;81.30;;;;;;5071459;28;20595;-82
2021/04/28 12:16:22;;;;;;;0.60;0.60;;;18.10;77.20;;;;;;5072014;28;20204;-82
2021/04/28 12:18:48;;;;;;;0.60;0.60;;;19.00;83.50;;;;;;5071436;28;20200;-81
2021/04/28 12:21:15;;;;;;;0.60;0.60;;;18.70;77.70;;;;;;5071790;28;20208;-81
2021/04/28 12:23:41;;;;;;;0.60;0.60;;;18.80;81.00;;;;;;5071402;28;20545;-82
2021/04/28 12:26:08;;;;;;;0.50;0.50;;;18.60;79.30;;;;;;5071881;28;20231;-81
2021/04/28 12:28:49;;;;;;;0.60;0.60;;;18.90;83.50;;;;;;5070806;28;20211;-82
2021/04/28 12:31:15;;;;;;;0.60;0.60;;;18.80;82.10;;;;;;5071902;28;20207;-81
2021/04/28 12:33:42;;;;;;;0.60;0.60;;;19.30;78.50;;;;;;5070918;28;20207;-81
2021/04/28 12:36:09;;;;;;;0.60;0.60;;;18.10;74.50;;;;;;5071438;28;20215;-81
2021/04/28 12:38:40;;;;;;;0.60;0.60;;;18.80;83.40;;;;;;5067474;28;20203;-81
2021/04/28 12:41:07;;;;;;;0.60;0.60;;;18.40;74.10;;;;;;5071509;28;20207;-81
2021/04/28 12:43:38;;;;;;;0.60;0.60;;;18.50;75.80;;;;;;5069939;28;20241;-81
2021/04/28 12:46:06;;;;;;;0.60;0.60;;;18.70;78.40;;;;;;5071126;28;20217;-81
2021/04/28 12:48:51;;;;;;;0.60;0.60;;;19.10;81.40;;;;;;5070206;28;20689;-81
2021/04/28 12:51:17;;;;;;;0.60;0.60;;;19.20;80.30;;;;;;5071401;28;20261;-81
2021/04/28 12:53:44;;;;;;;0.60;0.60;;;19.10;73.80;;;;;;5070629;28;20264;-81
2021/04/28 12:56:10;;;;;;;0.60;0.60;;;18.90;76.70;;;;;;5071317;28;20203;-81
2021/04/28 12:58:44;;;;;;;0.60;0.60;;;19.60;83.70;;;;;;5066893;28;20661;-81